createdAt,value
2023-02-06T00:01:38.782Z,3.20
2023-02-06T00:04:06.696Z,3.30
2023-02-06T00:06:41.681Z,3.20
2023-02-06T00:09:10.100Z,3.10
2023-02-06T00:11:41.532Z,2.70
2023-02-06T00:14:09.347Z,2.20
2023-02-06T00:16:57.038Z,2.00
2023-02-06T00:19:26.755Z,2.70
2023-02-06T00:21:54.833Z,2.20
2023-02-06T00:24:22.638Z,2.60
2023-02-06T00:26:50.575Z,2.90
2023-02-06T00:29:18.342Z,2.70
2023-02-06T00:31:47.848Z,2.00
2023-02-06T00:34:15.709Z,3.40
2023-02-06T00:36:43.669Z,2.70
2023-02-06T00:39:11.580Z,2.60
2023-02-06T00:41:39.549Z,3.00
2023-02-06T00:44:07.342Z,2.40
2023-02-06T00:46:35.310Z,2.20
2023-02-06T00:49:03.988Z,1.70
2023-02-06T00:51:32.058Z,2.40
2023-02-06T00:53:59.938Z,3.50
2023-02-06T00:56:27.940Z,3.30
2023-02-06T00:58:55.739Z,3.50
2023-02-06T01:01:26.365Z,3.80
2023-02-06T01:03:54.242Z,4.30
2023-02-06T01:06:22.272Z,3.80
2023-02-06T01:08:52.475Z,3.30
2023-02-06T01:11:21.493Z,2.70
2023-02-06T01:13:49.559Z,3.10
2023-02-06T01:16:19.812Z,4.30
2023-02-06T01:18:48.262Z,4.60
2023-02-06T01:21:20.833Z,3.20
2023-02-06T01:23:49.120Z,2.80
2023-02-06T01:26:18.729Z,3.40
2023-02-06T01:28:47.108Z,3.30
2023-02-06T01:31:18.938Z,3.30
2023-02-06T01:33:47.412Z,2.50
2023-02-06T01:36:15.206Z,2.60
2023-02-06T01:38:43.223Z,2.30
2023-02-06T01:41:11.257Z,2.20
2023-02-06T01:43:41.148Z,2.50
2023-02-06T01:46:09.067Z,3.00
2023-02-06T01:48:38.672Z,3.00
2023-02-06T01:51:07.318Z,2.90
2023-02-06T01:53:35.415Z,2.00
2023-02-06T01:56:03.509Z,3.00
2023-02-06T01:58:32.726Z,2.50
2023-02-06T02:01:00.945Z,2.80
2023-02-06T02:03:29.979Z,2.90
2023-02-06T02:05:59.760Z,2.70
2023-02-06T02:08:30.669Z,2.20
2023-02-06T02:10:59.052Z,2.40
2023-02-06T02:13:28.861Z,1.60
2023-02-06T02:16:00.893Z,2.00
2023-02-06T02:18:31.765Z,2.00
2023-02-06T02:20:59.630Z,2.30
2023-02-06T02:23:47.356Z,1.80
2023-02-06T02:26:33.086Z,1.80
2023-02-06T02:29:19.872Z,1.90
2023-02-06T02:32:01.704Z,2.40
2023-02-06T02:34:29.658Z,2.10
2023-02-06T02:37:04.188Z,1.30
2023-02-06T02:39:44.366Z,1.60
2023-02-06T02:42:15.169Z,1.80
2023-02-06T02:44:47.812Z,1.60
2023-02-06T02:47:16.392Z,1.60
2023-02-06T02:49:45.045Z,1.60
2023-02-06T02:52:14.461Z,1.80
2023-02-06T02:54:42.356Z,2.30
2023-02-06T02:57:14.407Z,2.30
2023-02-06T02:59:43.830Z,2.10
2023-02-06T03:02:13.141Z,2.20
2023-02-06T03:04:42.524Z,2.30
2023-02-06T03:07:30.134Z,2.50
2023-02-06T03:10:20.501Z,2.20
2023-02-06T03:12:52.780Z,3.00
2023-02-06T03:15:29.900Z,2.00
2023-02-06T03:18:01.768Z,1.90
2023-02-06T03:20:30.195Z,2.70
2023-02-06T03:22:59.586Z,2.10
2023-02-06T03:25:30.581Z,2.60
2023-02-06T03:27:58.516Z,3.40
2023-02-06T03:30:26.386Z,3.10
2023-02-06T03:32:55.278Z,2.90
2023-02-06T03:35:25.420Z,3.70
2023-02-06T03:37:53.266Z,3.10
2023-02-06T03:40:33.940Z,3.30
2023-02-06T03:43:03.383Z,3.00
2023-02-06T03:45:31.522Z,3.70
2023-02-06T03:48:03.746Z,2.70
2023-02-06T03:50:33.358Z,2.40
2023-02-06T03:53:01.130Z,3.60
2023-02-06T03:55:28.973Z,3.70
2023-02-06T03:58:10.227Z,3.60
2023-02-06T04:00:38.462Z,4.00
2023-02-06T04:03:06.838Z,3.20
2023-02-06T04:05:34.975Z,3.70
2023-02-06T04:08:03.004Z,4.50
2023-02-06T04:10:31.051Z,3.40
2023-02-06T04:12:59.861Z,4.70
2023-02-06T04:15:27.753Z,5.90
2023-02-06T04:18:01.279Z,5.50
2023-02-06T04:20:29.829Z,6.30
2023-02-06T04:22:58.308Z,6.10
2023-02-06T04:25:26.265Z,5.50
2023-02-06T04:27:54.225Z,3.60
2023-02-06T04:32:03.639Z,4.30
2023-02-06T04:34:31.964Z,3.80
2023-02-06T04:37:00.100Z,4.60
2023-02-06T04:39:28.276Z,4.70
2023-02-06T04:41:56.114Z,3.80
2023-02-06T04:44:23.973Z,3.50
2023-02-06T04:46:51.885Z,3.90
2023-02-06T04:49:19.736Z,4.80
2023-02-06T04:51:47.650Z,4.40
2023-02-06T04:54:17.354Z,4.50
2023-02-06T04:56:46.944Z,4.20
2023-02-06T04:59:14.834Z,3.80
2023-02-06T05:01:42.720Z,3.30
2023-02-06T05:04:10.524Z,3.90
2023-02-06T05:06:39.668Z,4.40
2023-02-06T05:09:08.148Z,3.80
2023-02-06T05:11:35.913Z,3.40
2023-02-06T05:14:04.203Z,2.70
2023-02-06T05:16:32.257Z,3.80
2023-02-06T05:19:00.966Z,3.50
2023-02-06T05:21:29.018Z,4.00
2023-02-06T05:23:56.831Z,3.40
2023-02-06T05:26:27.240Z,3.40
2023-02-06T05:28:55.117Z,3.60
2023-02-06T05:31:23.229Z,3.70
2023-02-06T05:33:55.034Z,4.30
2023-02-06T05:36:22.952Z,3.40
2023-02-06T05:38:50.912Z,3.40
2023-02-06T05:41:18.874Z,5.10
2023-02-06T05:43:46.754Z,5.10
2023-02-06T05:46:14.764Z,5.10
2023-02-06T05:51:45.039Z,5.20
2023-02-06T05:54:13.360Z,5.70
2023-02-06T05:56:41.089Z,3.90
2023-02-06T05:59:08.883Z,7.40
2023-02-06T06:01:36.960Z,4.00
2023-02-06T06:04:05.018Z,6.40
2023-02-06T06:06:33.222Z,7.80
2023-02-06T06:09:01.430Z,4.80
2023-02-06T06:11:29.868Z,4.20
2023-02-06T06:13:57.705Z,4.50
2023-02-06T06:16:25.606Z,3.00
2023-02-06T06:18:53.607Z,3.00
2023-02-06T06:21:21.822Z,2.80
2023-02-06T06:23:49.697Z,3.10
2023-02-06T06:26:17.576Z,3.50
2023-02-06T06:28:45.340Z,2.30
2023-02-06T06:31:13.264Z,2.60
2023-02-06T06:33:41.242Z,2.20
2023-02-06T06:36:09.571Z,2.60
2023-02-06T06:38:37.856Z,2.70
2023-02-06T06:41:05.955Z,2.30
2023-02-06T06:43:34.394Z,2.20
2023-02-06T06:46:02.605Z,2.50
2023-02-06T06:48:30.916Z,2.80
2023-02-06T06:50:58.659Z,2.10
2023-02-06T06:53:26.683Z,2.90
2023-02-06T06:55:54.839Z,2.40
2023-02-06T06:58:23.345Z,2.30
2023-02-06T07:00:53.168Z,2.80
2023-02-06T07:03:21.217Z,2.20
2023-02-06T07:05:50.325Z,4.40
2023-02-06T07:08:19.214Z,3.10
2023-02-06T07:10:47.384Z,3.80
2023-02-06T07:13:16.848Z,4.40
2023-02-06T07:15:45.177Z,3.70
2023-02-06T07:18:13.227Z,2.90
2023-02-06T07:20:40.995Z,3.20
2023-02-06T07:23:08.804Z,4.10
2023-02-06T07:25:37.213Z,4.30
2023-02-06T07:28:05.347Z,4.30
2023-02-06T07:30:33.553Z,4.20
2023-02-06T07:33:01.405Z,4.90
2023-02-06T07:35:29.483Z,5.10
2023-02-06T07:37:58.172Z,5.90
2023-02-06T07:40:29.341Z,5.10
2023-02-06T07:43:06.280Z,5.80
2023-02-06T07:45:36.326Z,6.60
2023-02-06T07:48:04.873Z,4.80
2023-02-06T07:50:33.285Z,6.30
2023-02-06T07:53:01.257Z,5.70
2023-02-06T07:55:29.579Z,6.00
2023-02-06T07:57:58.365Z,5.80
2023-02-06T08:00:26.347Z,6.00
2023-02-06T08:02:54.183Z,5.60
2023-02-06T08:05:22.069Z,3.90
2023-02-06T08:07:50.840Z,3.20
2023-02-06T08:10:18.707Z,4.10
2023-02-06T08:13:08.036Z,5.10
2023-02-06T08:15:36.597Z,4.70
2023-02-06T08:18:04.671Z,4.00
2023-02-06T08:20:32.562Z,4.90
2023-02-06T08:23:00.771Z,4.80
2023-02-06T08:25:28.606Z,4.10
2023-02-06T08:27:56.796Z,3.70
2023-02-06T08:30:24.887Z,3.90
2023-02-06T08:32:53.072Z,3.80
2023-02-06T08:35:20.878Z,3.40
2023-02-06T08:37:49.022Z,3.50
2023-02-06T08:40:17.491Z,3.30
2023-02-06T08:42:49.081Z,3.40
2023-02-06T08:45:16.859Z,2.50
2023-02-06T08:47:44.902Z,2.30
2023-02-06T08:50:12.777Z,3.50
2023-02-06T08:52:41.282Z,2.90
2023-02-06T08:55:09.158Z,2.30
2023-02-06T08:57:37.414Z,2.20
2023-02-06T09:00:05.605Z,2.20
2023-02-06T09:02:34.166Z,2.00
2023-02-06T09:05:02.131Z,1.80
2023-02-06T09:07:30.712Z,1.80
2023-02-06T09:09:58.512Z,2.20
2023-02-06T09:12:26.388Z,1.50
2023-02-06T09:14:54.382Z,2.30
2023-02-06T09:17:24.809Z,1.80
2023-02-06T09:19:52.896Z,2.10
2023-02-06T09:22:20.955Z,2.20
2023-02-06T09:24:49.147Z,2.60
2023-02-06T09:27:16.972Z,2.20
2023-02-06T09:29:45.105Z,2.40
2023-02-06T09:32:13.053Z,1.70
2023-02-06T09:34:41.146Z,1.50
2023-02-06T09:37:08.984Z,1.60
2023-02-06T09:39:37.207Z,1.30
2023-02-06T09:42:11.565Z,1.30
2023-02-06T09:44:41.101Z,2.50
2023-02-06T09:47:11.979Z,2.60
2023-02-06T09:49:43.166Z,2.20
2023-02-06T09:52:21.503Z,1.50
2023-02-06T09:54:55.260Z,1.20
2023-02-06T09:57:44.044Z,1.30
2023-02-06T10:00:12.446Z,1.20
2023-02-06T10:03:03.627Z,0.90
2023-02-06T10:05:40.733Z,1.00
2023-02-06T10:08:22.845Z,1.60
2023-02-06T10:10:53.543Z,5.70
2023-02-06T10:13:39.336Z,1.20
2023-02-06T10:16:11.899Z,1.70
2023-02-06T10:18:41.769Z,1.10
2023-02-06T10:21:09.695Z,1.20
2023-02-06T10:23:40.051Z,1.00
2023-02-06T10:26:18.287Z,1.10
2023-02-06T10:28:50.619Z,0.90
2023-02-06T10:31:21.654Z,1.10
2023-02-06T10:33:49.786Z,0.90
2023-02-06T10:36:30.919Z,1.00
2023-02-06T10:39:11.581Z,0.90
2023-02-06T10:42:03.194Z,0.80
2023-02-06T10:44:34.445Z,0.70
2023-02-06T10:47:02.385Z,0.80
2023-02-06T10:49:35.338Z,1.20
2023-02-06T10:52:07.732Z,0.70
2023-02-06T10:54:39.104Z,0.70
2023-02-06T10:57:16.626Z,0.90
2023-02-06T10:59:48.689Z,0.80
2023-02-06T11:02:27.023Z,1.00
2023-02-06T11:04:58.510Z,1.30
2023-02-06T11:07:30.832Z,1.00
2023-02-06T11:09:59.008Z,1.00
2023-02-06T11:12:26.836Z,0.90
2023-02-06T11:14:54.899Z,1.10
2023-02-06T11:17:23.310Z,0.80
2023-02-06T11:19:51.709Z,0.70
2023-02-06T11:22:29.702Z,0.70
2023-02-06T11:25:00.841Z,0.70
2023-02-06T11:27:29.108Z,0.90
2023-02-06T11:29:57.353Z,1.40
2023-02-06T11:32:30.170Z,1.20
2023-02-06T11:34:59.414Z,1.20
2023-02-06T11:37:32.394Z,1.20
2023-02-06T11:40:19.520Z,1.10
2023-02-06T11:42:48.322Z,0.90
2023-02-06T11:45:22.846Z,1.20
2023-02-06T11:47:50.745Z,1.00
2023-02-06T11:50:25.041Z,1.00
2023-02-06T11:52:57.785Z,1.00
2023-02-06T11:55:30.032Z,0.80
2023-02-06T11:58:21.192Z,1.20
2023-02-06T12:00:52.115Z,0.90
2023-02-06T12:03:23.092Z,0.70
2023-02-06T12:05:50.931Z,0.70
2023-02-06T12:08:19.617Z,0.80
2023-02-06T12:10:52.937Z,1.00
2023-02-06T12:13:21.908Z,0.90
2023-02-06T12:15:51.111Z,0.80
2023-02-06T12:18:27.972Z,1.00
2023-02-06T12:20:59.823Z,2.50
2023-02-06T12:23:28.865Z,0.90
2023-02-06T12:25:57.665Z,0.70
2023-02-06T12:28:30.015Z,0.80
2023-02-06T12:30:59.223Z,0.90
2023-02-06T12:33:34.294Z,0.90
2023-02-06T12:36:30.262Z,1.40
2023-02-06T12:39:05.412Z,0.70
2023-02-06T12:41:49.714Z,0.70
2023-02-06T12:44:20.510Z,0.70
2023-02-06T12:46:50.488Z,1.50
2023-02-06T12:49:41.207Z,1.30
2023-02-06T12:52:25.922Z,1.20
2023-02-06T12:55:12.049Z,1.40
2023-02-06T12:57:40.037Z,1.10
2023-02-06T13:00:27.000Z,1.00
2023-02-06T13:03:05.911Z,1.20
2023-02-06T13:05:36.049Z,1.00
2023-02-06T13:08:05.966Z,1.10
2023-02-06T13:10:34.059Z,1.20
2023-02-06T13:13:02.665Z,1.20
2023-02-06T13:15:40.437Z,1.20
2023-02-06T13:18:31.754Z,0.80
2023-02-06T13:21:15.009Z,0.90
2023-02-06T13:23:50.438Z,1.10
2023-02-06T13:26:18.350Z,1.00
2023-02-06T13:28:46.776Z,1.00
2023-02-06T13:31:21.939Z,1.00
2023-02-06T13:34:00.294Z,1.10
2023-02-06T13:36:42.645Z,1.00
2023-02-06T13:39:14.260Z,1.10
2023-02-06T13:41:45.534Z,1.00
2023-02-06T13:44:40.025Z,1.10
2023-02-06T13:47:16.063Z,0.80
2023-02-06T13:49:55.974Z,1.20
2023-02-06T13:52:23.757Z,1.20
2023-02-06T13:55:12.033Z,2.10
2023-02-06T13:57:39.944Z,1.10
2023-02-06T14:00:10.814Z,1.80
2023-02-06T14:04:48.505Z,0.70
2023-02-06T14:07:34.753Z,0.90
2023-02-06T14:10:05.297Z,1.00
2023-02-06T14:12:53.137Z,0.90
2023-02-06T14:15:33.070Z,1.20
2023-02-06T14:18:13.613Z,1.30
2023-02-06T14:20:44.226Z,1.00
2023-02-06T14:23:20.974Z,1.60
2023-02-06T14:26:07.950Z,1.40
2023-02-06T14:28:38.697Z,1.60
2023-02-06T14:31:15.738Z,1.20
2023-02-06T14:33:43.724Z,1.30
2023-02-06T14:36:17.413Z,1.00
2023-02-06T14:38:45.293Z,1.60
2023-02-06T14:41:13.374Z,1.30
2023-02-06T14:43:41.949Z,1.50
2023-02-06T14:46:12.269Z,1.10
2023-02-06T14:48:45.390Z,1.30
2023-02-06T14:51:32.484Z,1.50
2023-02-06T14:54:01.766Z,1.10
2023-02-06T14:56:31.372Z,1.20
2023-02-06T14:59:18.345Z,1.20
2023-02-06T15:01:47.621Z,0.90
2023-02-06T15:04:16.681Z,0.90
2023-02-06T15:06:54.927Z,0.80
2023-02-06T15:09:24.112Z,0.80
2023-02-06T15:11:56.563Z,0.80
2023-02-06T15:14:28.486Z,1.00
2023-02-06T15:17:00.271Z,1.10
2023-02-06T15:19:30.897Z,1.20
2023-02-06T15:22:06.132Z,0.90
2023-02-06T15:24:34.214Z,0.90
2023-02-06T15:27:18.672Z,0.90
2023-02-06T15:29:48.114Z,1.00
2023-02-06T15:32:29.592Z,1.00
2023-02-06T15:34:57.649Z,0.90
2023-02-06T15:37:32.749Z,1.00
2023-02-06T15:40:06.273Z,1.00
2023-02-06T15:42:34.125Z,0.90
2023-02-06T15:45:02.013Z,1.00
2023-02-06T15:47:30.075Z,1.00
2023-02-06T15:50:00.645Z,1.80
2023-02-06T15:52:36.217Z,1.80
2023-02-06T15:55:04.867Z,1.10
2023-02-06T15:57:34.375Z,0.80
2023-02-06T16:00:02.672Z,1.30
2023-02-06T16:02:40.262Z,0.90
2023-02-06T16:05:08.191Z,1.40
2023-02-06T16:07:37.617Z,0.80
2023-02-06T16:10:08.480Z,0.80
2023-02-06T16:12:37.320Z,0.90
2023-02-06T16:15:22.507Z,0.80
2023-02-06T16:17:50.488Z,0.90
2023-02-06T16:20:32.306Z,1.30
2023-02-06T16:23:18.937Z,1.10
2023-02-06T16:25:47.989Z,1.30
2023-02-06T16:28:19.989Z,1.00
2023-02-06T16:30:52.990Z,1.00
2023-02-06T16:33:25.756Z,1.00
2023-02-06T16:35:53.954Z,1.30
2023-02-06T16:38:21.956Z,1.10
2023-02-06T16:40:50.295Z,1.00
2023-02-06T16:43:18.286Z,1.10
2023-02-06T16:45:46.767Z,1.30
2023-02-06T16:48:17.254Z,1.10
2023-02-06T16:50:45.728Z,1.50
2023-02-06T16:53:23.641Z,1.00
2023-02-06T16:55:51.524Z,1.10
2023-02-06T16:58:20.880Z,1.10
2023-02-06T17:00:48.881Z,1.20
2023-02-06T17:03:17.465Z,1.60
2023-02-06T17:05:45.822Z,1.20
2023-02-06T17:08:14.960Z,1.20
2023-02-06T17:10:45.204Z,1.00
2023-02-06T17:13:14.230Z,1.10
2023-02-06T17:15:42.653Z,1.30
2023-02-06T17:18:12.374Z,1.10
2023-02-06T17:20:40.975Z,1.10
2023-02-06T17:23:11.105Z,1.10
2023-02-06T17:25:39.278Z,1.40
2023-02-06T17:28:07.713Z,1.20
2023-02-06T17:30:36.682Z,1.20
2023-02-06T17:33:05.072Z,1.40
2023-02-06T17:35:33.414Z,1.10
2023-02-06T17:38:01.704Z,1.70
2023-02-06T17:40:30.193Z,1.40
2023-02-06T17:42:59.089Z,2.30
2023-02-06T17:45:26.919Z,1.90
2023-02-06T17:47:54.709Z,1.70
2023-02-06T17:50:23.120Z,1.70
2023-02-06T17:52:52.912Z,1.10
2023-02-06T17:55:20.794Z,0.90
2023-02-06T17:57:48.507Z,0.90
2023-02-06T18:00:16.913Z,1.00
2023-02-06T18:02:44.756Z,0.90
2023-02-06T18:05:12.687Z,1.30
2023-02-06T18:07:40.944Z,2.00
2023-02-06T18:10:08.937Z,2.50
2023-02-06T18:12:38.447Z,2.10
2023-02-06T18:15:07.435Z,2.60
2023-02-06T18:17:36.648Z,2.10
2023-02-06T18:20:06.274Z,2.60
2023-02-06T18:22:41.175Z,1.40
2023-02-06T18:25:10.221Z,1.40
2023-02-06T18:27:38.775Z,1.50
2023-02-06T18:30:06.925Z,2.00
2023-02-06T18:32:37.283Z,2.00
2023-02-06T18:35:06.024Z,1.80
2023-02-06T18:37:35.172Z,1.80
2023-02-06T18:40:03.369Z,1.80
2023-02-06T18:42:50.025Z,4.30
2023-02-06T18:45:18.567Z,2.50
2023-02-06T18:47:46.759Z,2.40
2023-02-06T18:50:15.260Z,2.30
2023-02-06T18:52:43.257Z,2.70
2023-02-06T18:55:11.209Z,2.50
2023-02-06T18:57:39.309Z,3.60
2023-02-06T19:00:07.886Z,3.70
2023-02-06T19:02:35.761Z,3.30
2023-02-06T19:05:03.540Z,4.00
2023-02-06T19:07:31.621Z,2.30
2023-02-06T19:10:00.179Z,2.10
2023-02-06T19:12:28.637Z,2.40
2023-02-06T19:14:56.774Z,2.50
2023-02-06T19:17:25.068Z,2.80
2023-02-06T19:19:52.992Z,4.30
2023-02-06T19:22:21.287Z,4.20
2023-02-06T19:24:51.099Z,3.50
2023-02-06T19:27:19.174Z,4.50
2023-02-06T19:29:47.413Z,4.40
2023-02-06T19:32:15.184Z,4.40
2023-02-06T19:34:45.163Z,4.80
2023-02-06T19:37:13.073Z,4.40
2023-02-06T19:39:41.355Z,3.80
2023-02-06T19:42:09.680Z,4.50
2023-02-06T19:44:38.710Z,4.50
2023-02-06T19:47:06.560Z,4.60
2023-02-06T19:49:34.876Z,3.70
2023-02-06T19:52:02.800Z,4.30
2023-02-06T19:54:31.616Z,3.70
2023-02-06T19:57:00.669Z,3.60
2023-02-06T19:59:29.195Z,3.20
2023-02-06T20:01:57.769Z,3.30
2023-02-06T20:04:26.994Z,3.30
2023-02-06T20:06:55.890Z,3.30
2023-02-06T20:09:24.277Z,3.20
2023-02-06T20:11:53.263Z,3.00
2023-02-06T20:14:21.338Z,3.60
2023-02-06T20:16:49.395Z,2.60
2023-02-06T20:19:27.085Z,3.50
2023-02-06T20:21:56.198Z,3.20
2023-02-06T20:24:25.140Z,3.80
2023-02-06T20:26:55.944Z,4.00
2023-02-06T20:29:24.997Z,3.80
2023-02-06T20:31:54.426Z,3.90
2023-02-06T20:34:22.431Z,3.30
2023-02-06T20:36:50.585Z,3.90
2023-02-06T20:39:19.296Z,3.50
2023-02-06T20:41:49.724Z,4.30
2023-02-06T20:44:17.667Z,3.90
2023-02-06T20:46:45.532Z,3.50
2023-02-06T20:49:17.458Z,3.60
2023-02-06T20:51:45.365Z,3.70
2023-02-06T20:54:13.263Z,2.70
2023-02-06T20:56:41.194Z,3.40
2023-02-06T20:59:11.132Z,2.90
2023-02-06T21:01:39.203Z,3.50
2023-02-06T21:04:08.140Z,3.30
2023-02-06T21:06:36.597Z,3.90
2023-02-06T21:09:05.986Z,3.40
2023-02-06T21:11:34.985Z,4.70
2023-02-06T21:14:03.585Z,5.20
2023-02-06T21:16:31.992Z,5.00
2023-02-06T21:18:59.845Z,5.60
2023-02-06T21:21:27.734Z,5.40
2023-02-06T21:23:55.957Z,5.60
2023-02-06T21:26:24.377Z,5.80
2023-02-06T21:28:52.485Z,6.40
2023-02-06T21:31:24.495Z,5.60
2023-02-06T21:33:52.755Z,6.70
2023-02-06T21:36:21.426Z,6.40
2023-02-06T21:38:49.303Z,6.40
2023-02-06T21:41:17.818Z,5.80
2023-02-06T21:43:45.736Z,5.10
2023-02-06T21:46:13.832Z,4.80
2023-02-06T21:48:41.808Z,4.80
2023-02-06T21:51:14.137Z,3.80
2023-02-06T21:53:42.406Z,4.60
2023-02-06T21:56:13.998Z,3.90
2023-02-06T21:58:41.926Z,3.60
2023-02-06T22:01:13.749Z,3.70
2023-02-06T22:03:41.722Z,3.80
2023-02-06T22:06:11.678Z,3.40
2023-02-06T22:08:43.711Z,3.20
2023-02-06T22:11:12.185Z,4.20
2023-02-06T22:13:40.974Z,4.10
2023-02-06T22:16:11.537Z,4.50
2023-02-06T22:18:39.593Z,5.00
2023-02-06T22:21:11.667Z,4.20
2023-02-06T22:23:39.577Z,4.20
2023-02-06T22:26:08.086Z,4.10
2023-02-06T22:28:36.861Z,4.40
2023-02-06T22:31:05.990Z,3.30
2023-02-06T22:33:35.377Z,4.00
2023-02-06T22:36:07.688Z,4.10
2023-02-06T22:38:35.696Z,3.80
2023-02-06T22:41:04.750Z,4.90
2023-02-06T22:43:34.326Z,3.90
2023-02-06T22:46:02.524Z,3.60
2023-02-06T22:48:30.522Z,3.70
2023-02-06T22:51:08.070Z,3.00
2023-02-06T22:53:36.996Z,2.90
2023-02-06T22:56:25.016Z,3.80
2023-02-06T22:58:53.324Z,3.70
2023-02-06T23:01:21.901Z,3.40
2023-02-06T23:03:52.964Z,3.40
2023-02-06T23:06:21.266Z,4.00
2023-02-06T23:08:49.715Z,4.60
2023-02-06T23:11:17.603Z,3.90
2023-02-06T23:13:45.563Z,4.40
2023-02-06T23:16:15.299Z,6.10
2023-02-06T23:18:43.670Z,5.30
2023-02-06T23:21:12.115Z,5.10
2023-02-06T23:23:40.544Z,4.90
2023-02-06T23:26:10.370Z,5.70
2023-02-06T23:28:38.812Z,6.10
2023-02-06T23:31:07.243Z,5.30
2023-02-06T23:33:35.382Z,5.90
2023-02-06T23:36:04.456Z,5.80
2023-02-06T23:38:33.187Z,6.20
2023-02-06T23:41:24.578Z,5.20
2023-02-06T23:43:53.155Z,5.90
2023-02-06T23:46:21.282Z,5.40
2023-02-06T23:48:49.181Z,5.60
2023-02-06T23:51:17.223Z,5.30
2023-02-06T23:53:45.178Z,4.50
2023-02-06T23:56:14.229Z,5.40
2023-02-06T23:58:43.061Z,4.90
